sensor_id;sensor_type;location;lat;lon;timestamp;temperature;humidity
9125;DHT22;4597;48.730;9.114;2022-12-05T00:00:33;4.00;99.90
9125;DHT22;4597;48.730;9.114;2022-12-05T00:03:03;4.00;99.90
9125;DHT22;4597;48.730;9.114;2022-12-05T00:05:28;3.90;99.90
9125;DHT22;4597;48.730;9.114;2022-12-05T00:07:54;4.00;99.90
9125;DHT22;4597;48.730;9.114;2022-12-05T00:10:19;4.00;99.90
9125;DHT22;4597;48.730;9.114;2022-12-05T00:12:45;3.90;99.90
9125;DHT22;4597;48.730;9.114;2022-12-05T00:15:10;3.90;99.90
9125;DHT22;4597;48.730;9.114;2022-12-05T00:17:38;3.90;99.90
9125;DHT22;4597;48.730;9.114;2022-12-05T00:20:04;3.90;99.90
9125;DHT22;4597;48.730;9.114;2022-12-05T00:22:30;3.90;99.90
9125;DHT22;4597;48.730;9.114;2022-12-05T00:24:56;3.90;99.90
9125;DHT22;4597;48.730;9.114;2022-12-05T00:27:21;3.90;99.90
9125;DHT22;4597;48.730;9.114;2022-12-05T00:29:47;3.90;99.90
9125;DHT22;4597;48.730;9.114;2022-12-05T00:32:12;3.90;99.90
9125;DHT22;4597;48.730;9.114;2022-12-05T00:34:38;3.90;99.90
9125;DHT22;4597;48.730;9.114;2022-12-05T00:37:03;3.90;99.90
9125;DHT22;4597;48.730;9.114;2022-12-05T00:39:29;3.90;99.90
9125;DHT22;4597;48.730;9.114;2022-12-05T00:41:54;3.90;99.90
9125;DHT22;4597;48.730;9.114;2022-12-05T00:44:20;3.90;99.90
9125;DHT22;4597;48.730;9.114;2022-12-05T00:46:45;3.90;99.90
9125;DHT22;4597;48.730;9.114;2022-12-05T00:49:11;3.90;99.90
9125;DHT22;4597;48.730;9.114;2022-12-05T00:51:39;3.90;99.90
9125;DHT22;4597;48.730;9.114;2022-12-05T00:54:08;3.90;99.90
9125;DHT22;4597;48.730;9.114;2022-12-05T00:56:34;3.90;99.90
9125;DHT22;4597;48.730;9.114;2022-12-05T00:59:01;3.90;99.90
9125;DHT22;4597;48.730;9.114;2022-12-05T01:01:33;3.90;99.90
9125;DHT22;4597;48.730;9.114;2022-12-05T01:04:07;3.80;99.90
9125;DHT22;4597;48.730;9.114;2022-12-05T01:06:33;3.80;99.90
9125;DHT22;4597;48.730;9.114;2022-12-05T01:09:00;3.90;99.90
9125;DHT22;4597;48.730;9.114;2022-12-05T01:11:26;3.90;99.90
9125;DHT22;4597;48.730;9.114;2022-12-05T01:13:52;3.90;99.90
9125;DHT22;4597;48.730;9.114;2022-12-05T01:16:38;3.90;99.90
9125;DHT22;4597;48.730;9.114;2022-12-05T01:19:27;3.90;99.90
9125;DHT22;4597;48.730;9.114;2022-12-05T01:21:52;3.90;99.90
9125;DHT22;4597;48.730;9.114;2022-12-05T01:24:20;3.90;99.90
9125;DHT22;4597;48.730;9.114;2022-12-05T01:26:46;3.90;99.90
9125;DHT22;4597;48.730;9.114;2022-12-05T01:29:13;3.90;99.90
9125;DHT22;4597;48.730;9.114;2022-12-05T01:31:39;3.90;99.90
9125;DHT22;4597;48.730;9.114;2022-12-05T01:34:09;3.90;99.90
9125;DHT22;4597;48.730;9.114;2022-12-05T01:36:35;3.90;99.90
9125;DHT22;4597;48.730;9.114;2022-12-05T01:39:04;3.90;99.90
9125;DHT22;4597;48.730;9.114;2022-12-05T01:41:36;3.90;99.90
9125;DHT22;4597;48.730;9.114;2022-12-05T01:44:05;3.90;99.90
9125;DHT22;4597;48.730;9.114;2022-12-05T01:46:39;3.90;99.90
9125;DHT22;4597;48.730;9.114;2022-12-05T01:51:34;3.90;99.90
9125;DHT22;4597;48.730;9.114;2022-12-05T01:54:00;3.90;99.90
9125;DHT22;4597;48.730;9.114;2022-12-05T01:56:26;3.90;99.90
9125;DHT22;4597;48.730;9.114;2022-12-05T01:58:53;3.90;99.90
9125;DHT22;4597;48.730;9.114;2022-12-05T02:01:19;3.90;99.90
9125;DHT22;4597;48.730;9.114;2022-12-05T02:03:47;3.90;99.90
9125;DHT22;4597;48.730;9.114;2022-12-05T02:06:15;3.90;99.90
9125;DHT22;4597;48.730;9.114;2022-12-05T02:08:40;3.90;99.90
9125;DHT22;4597;48.730;9.114;2022-12-05T02:11:08;3.90;99.90
9125;DHT22;4597;48.730;9.114;2022-12-05T02:14:12;3.90;99.90
9125;DHT22;4597;48.730;9.114;2022-12-05T02:28:04;3.90;99.90
9125;DHT22;4597;48.730;9.114;2022-12-05T02:30:59;3.90;99.90
9125;DHT22;4597;48.730;9.114;2022-12-05T02:45:00;3.90;99.90
9125;DHT22;4597;48.730;9.114;2022-12-05T02:47:29;3.90;99.90
9125;DHT22;4597;48.730;9.114;2022-12-05T02:49:56;3.90;99.90
9125;DHT22;4597;48.730;9.114;2022-12-05T02:52:24;3.90;99.90
9125;DHT22;4597;48.730;9.114;2022-12-05T02:54:50;4.00;99.90
9125;DHT22;4597;48.730;9.114;2022-12-05T02:57:18;3.90;99.90
9125;DHT22;4597;48.730;9.114;2022-12-05T02:59:45;3.90;99.90
9125;DHT22;4597;48.730;9.114;2022-12-05T03:02:29;4.00;99.90
9125;DHT22;4597;48.730;9.114;2022-12-05T03:05:00;3.90;99.90
9125;DHT22;4597;48.730;9.114;2022-12-05T03:07:30;4.00;99.90
9125;DHT22;4597;48.730;9.114;2022-12-05T03:10:02;4.00;99.90
9125;DHT22;4597;48.730;9.114;2022-12-05T03:12:37;4.00;99.90
9125;DHT22;4597;48.730;9.114;2022-12-05T03:15:12;4.00;99.90
9125;DHT22;4597;48.730;9.114;2022-12-05T03:17:53;4.00;99.90
9125;DHT22;4597;48.730;9.114;2022-12-05T03:20:28;4.00;99.90
9125;DHT22;4597;48.730;9.114;2022-12-05T03:23:01;4.00;99.90
9125;DHT22;4597;48.730;9.114;2022-12-05T03:25:34;4.00;99.90
9125;DHT22;4597;48.730;9.114;2022-12-05T03:28:09;4.00;99.90
9125;DHT22;4597;48.730;9.114;2022-12-05T03:30:39;4.00;99.90
9125;DHT22;4597;48.730;9.114;2022-12-05T03:33:25;4.00;99.90
9125;DHT22;4597;48.730;9.114;2022-12-05T03:36:05;4.10;99.90
9125;DHT22;4597;48.730;9.114;2022-12-05T03:38:44;4.00;99.90
9125;DHT22;4597;48.730;9.114;2022-12-05T03:41:22;4.00;99.90
9125;DHT22;4597;48.730;9.114;2022-12-05T03:46:23;4.00;99.90
9125;DHT22;4597;48.730;9.114;2022-12-05T03:49:15;4.00;99.90
9125;DHT22;4597;48.730;9.114;2022-12-05T03:51:57;4.00;99.90
9125;DHT22;4597;48.730;9.114;2022-12-05T03:54:26;4.00;99.90
9125;DHT22;4597;48.730;9.114;2022-12-05T03:56:58;4.00;99.90
9125;DHT22;4597;48.730;9.114;2022-12-05T03:59:29;4.00;99.90
9125;DHT22;4597;48.730;9.114;2022-12-05T04:01:57;4.00;99.90
9125;DHT22;4597;48.730;9.114;2022-12-05T04:04:30;4.00;99.90
9125;DHT22;4597;48.730;9.114;2022-12-05T04:07:02;4.00;99.90
9125;DHT22;4597;48.730;9.114;2022-12-05T04:09:38;4.00;99.90
9125;DHT22;4597;48.730;9.114;2022-12-05T04:12:13;4.00;99.90
9125;DHT22;4597;48.730;9.114;2022-12-05T04:14:46;4.00;99.90
9125;DHT22;4597;48.730;9.114;2022-12-05T04:23:12;4.00;99.90
9125;DHT22;4597;48.730;9.114;2022-12-05T04:29:25;4.00;99.90
9125;DHT22;4597;48.730;9.114;2022-12-05T04:31:34;4.00;99.90
9125;DHT22;4597;48.730;9.114;2022-12-05T04:34:06;4.00;99.90
9125;DHT22;4597;48.730;9.114;2022-12-05T04:36:56;4.00;99.90
9125;DHT22;4597;48.730;9.114;2022-12-05T04:39:51;4.00;99.90
9125;DHT22;4597;48.730;9.114;2022-12-05T04:42:21;4.00;99.90
9125;DHT22;4597;48.730;9.114;2022-12-05T04:45:01;4.10;99.90
9125;DHT22;4597;48.730;9.114;2022-12-05T04:47:35;4.10;99.90
9125;DHT22;4597;48.730;9.114;2022-12-05T04:50:03;4.10;99.90
9125;DHT22;4597;48.730;9.114;2022-12-05T04:52:29;4.10;99.90
9125;DHT22;4597;48.730;9.114;2022-12-05T04:55:02;4.10;99.90
9125;DHT22;4597;48.730;9.114;2022-12-05T04:57:33;4.10;99.90
9125;DHT22;4597;48.730;9.114;2022-12-05T04:59:59;4.10;99.90
9125;DHT22;4597;48.730;9.114;2022-12-05T05:02:53;4.10;99.90
9125;DHT22;4597;48.730;9.114;2022-12-05T05:05:21;4.10;99.90
9125;DHT22;4597;48.730;9.114;2022-12-05T05:07:50;4.00;99.90
9125;DHT22;4597;48.730;9.114;2022-12-05T05:10:36;4.00;99.90
9125;DHT22;4597;48.730;9.114;2022-12-05T05:13:02;4.00;99.90
9125;DHT22;4597;48.730;9.114;2022-12-05T05:15:28;4.00;99.90
9125;DHT22;4597;48.730;9.114;2022-12-05T05:17:54;4.00;99.90
9125;DHT22;4597;48.730;9.114;2022-12-05T05:20:19;4.10;99.90
9125;DHT22;4597;48.730;9.114;2022-12-05T05:22:48;4.10;99.90
9125;DHT22;4597;48.730;9.114;2022-12-05T05:25:14;4.10;99.90
9125;DHT22;4597;48.730;9.114;2022-12-05T05:27:40;4.10;99.90
9125;DHT22;4597;48.730;9.114;2022-12-05T05:30:06;4.20;99.90
9125;DHT22;4597;48.730;9.114;2022-12-05T05:32:32;4.10;99.90
9125;DHT22;4597;48.730;9.114;2022-12-05T05:34:57;4.10;99.90
9125;DHT22;4597;48.730;9.114;2022-12-05T05:37:23;4.20;99.90
9125;DHT22;4597;48.730;9.114;2022-12-05T05:39:48;4.20;99.90
9125;DHT22;4597;48.730;9.114;2022-12-05T05:42:14;4.20;99.90
9125;DHT22;4597;48.730;9.114;2022-12-05T05:44:39;4.20;99.90
9125;DHT22;4597;48.730;9.114;2022-12-05T05:47:05;4.20;99.90
9125;DHT22;4597;48.730;9.114;2022-12-05T05:49:30;4.20;99.90
9125;DHT22;4597;48.730;9.114;2022-12-05T05:51:56;4.20;99.90
9125;DHT22;4597;48.730;9.114;2022-12-05T05:54:21;4.20;99.90
9125;DHT22;4597;48.730;9.114;2022-12-05T05:56:47;4.20;99.90
9125;DHT22;4597;48.730;9.114;2022-12-05T05:59:12;4.20;99.90
9125;DHT22;4597;48.730;9.114;2022-12-05T06:01:38;4.20;99.90
9125;DHT22;4597;48.730;9.114;2022-12-05T06:04:03;4.20;99.90
9125;DHT22;4597;48.730;9.114;2022-12-05T06:06:29;4.20;99.90
9125;DHT22;4597;48.730;9.114;2022-12-05T06:08:55;4.20;99.90
9125;DHT22;4597;48.730;9.114;2022-12-05T06:11:23;4.30;99.90
9125;DHT22;4597;48.730;9.114;2022-12-05T06:13:49;4.30;99.90
9125;DHT22;4597;48.730;9.114;2022-12-05T06:16:16;4.30;99.90
9125;DHT22;4597;48.730;9.114;2022-12-05T06:18:42;4.20;99.90
9125;DHT22;4597;48.730;9.114;2022-12-05T06:21:09;4.30;99.90
9125;DHT22;4597;48.730;9.114;2022-12-05T06:23:36;4.30;99.90
9125;DHT22;4597;48.730;9.114;2022-12-05T06:26:02;4.30;99.90
9125;DHT22;4597;48.730;9.114;2022-12-05T06:28:28;4.20;99.90
9125;DHT22;4597;48.730;9.114;2022-12-05T06:30:54;4.20;99.90
9125;DHT22;4597;48.730;9.114;2022-12-05T06:33:20;4.20;99.90
9125;DHT22;4597;48.730;9.114;2022-12-05T06:35:46;4.20;99.90
9125;DHT22;4597;48.730;9.114;2022-12-05T06:38:12;4.20;99.90
9125;DHT22;4597;48.730;9.114;2022-12-05T06:40:42;4.20;99.90
9125;DHT22;4597;48.730;9.114;2022-12-05T06:43:08;4.20;99.90
9125;DHT22;4597;48.730;9.114;2022-12-05T06:45:36;4.30;99.90
9125;DHT22;4597;48.730;9.114;2022-12-05T06:48:02;4.30;99.90
9125;DHT22;4597;48.730;9.114;2022-12-05T06:50:28;4.30;99.90
9125;DHT22;4597;48.730;9.114;2022-12-05T06:52:53;4.30;99.90
9125;DHT22;4597;48.730;9.114;2022-12-05T06:55:19;4.30;99.90
9125;DHT22;4597;48.730;9.114;2022-12-05T06:57:44;4.30;99.90
9125;DHT22;4597;48.730;9.114;2022-12-05T07:00:10;4.30;99.90
9125;DHT22;4597;48.730;9.114;2022-12-05T07:02:54;4.30;99.90
9125;DHT22;4597;48.730;9.114;2022-12-05T07:05:20;4.30;99.90
9125;DHT22;4597;48.730;9.114;2022-12-05T07:07:46;4.40;99.90
9125;DHT22;4597;48.730;9.114;2022-12-05T07:10:12;4.30;99.90
9125;DHT22;4597;48.730;9.114;2022-12-05T07:12:37;4.40;99.90
9125;DHT22;4597;48.730;9.114;2022-12-05T07:15:03;4.40;99.90
9125;DHT22;4597;48.730;9.114;2022-12-05T07:17:29;4.40;99.90
9125;DHT22;4597;48.730;9.114;2022-12-05T07:19:55;4.40;99.90
9125;DHT22;4597;48.730;9.114;2022-12-05T07:22:21;4.40;99.90
9125;DHT22;4597;48.730;9.114;2022-12-05T07:24:47;4.40;99.90
9125;DHT22;4597;48.730;9.114;2022-12-05T07:27:15;4.40;99.90
9125;DHT22;4597;48.730;9.114;2022-12-05T07:29:40;4.50;99.90
9125;DHT22;4597;48.730;9.114;2022-12-05T07:32:06;4.50;99.90
9125;DHT22;4597;48.730;9.114;2022-12-05T07:34:32;4.50;99.90
9125;DHT22;4597;48.730;9.114;2022-12-05T07:36:57;4.50;99.90
9125;DHT22;4597;48.730;9.114;2022-12-05T07:39:22;4.50;99.90
9125;DHT22;4597;48.730;9.114;2022-12-05T07:41:48;4.50;99.90
9125;DHT22;4597;48.730;9.114;2022-12-05T07:44:14;4.40;99.90
9125;DHT22;4597;48.730;9.114;2022-12-05T07:46:39;4.40;99.90
9125;DHT22;4597;48.730;9.114;2022-12-05T07:49:06;4.40;99.90
9125;DHT22;4597;48.730;9.114;2022-12-05T07:51:32;4.40;99.90
9125;DHT22;4597;48.730;9.114;2022-12-05T07:53:58;4.40;99.90
9125;DHT22;4597;48.730;9.114;2022-12-05T07:56:24;4.40;99.90
9125;DHT22;4597;48.730;9.114;2022-12-05T07:58:50;4.40;99.90
9125;DHT22;4597;48.730;9.114;2022-12-05T08:01:21;4.40;99.90
9125;DHT22;4597;48.730;9.114;2022-12-05T08:03:47;4.40;99.90
9125;DHT22;4597;48.730;9.114;2022-12-05T08:06:16;4.50;99.90
9125;DHT22;4597;48.730;9.114;2022-12-05T08:08:42;4.50;99.90
9125;DHT22;4597;48.730;9.114;2022-12-05T08:11:13;4.60;99.90
9125;DHT22;4597;48.730;9.114;2022-12-05T08:13:39;4.50;99.90
9125;DHT22;4597;48.730;9.114;2022-12-05T08:16:08;4.50;99.90
9125;DHT22;4597;48.730;9.114;2022-12-05T08:18:34;4.50;99.90
9125;DHT22;4597;48.730;9.114;2022-12-05T08:21:07;4.60;99.90
9125;DHT22;4597;48.730;9.114;2022-12-05T08:23:33;4.60;99.90
9125;DHT22;4597;48.730;9.114;2022-12-05T08:28:42;4.60;99.90
9125;DHT22;4597;48.730;9.114;2022-12-05T08:31:12;4.70;99.90
9125;DHT22;4597;48.730;9.114;2022-12-05T08:33:38;4.70;99.90
9125;DHT22;4597;48.730;9.114;2022-12-05T08:36:06;4.70;99.90
9125;DHT22;4597;48.730;9.114;2022-12-05T08:38:33;4.70;99.90
9125;DHT22;4597;48.730;9.114;2022-12-05T08:41:03;4.70;99.90
9125;DHT22;4597;48.730;9.114;2022-12-05T08:43:29;4.70;99.90
9125;DHT22;4597;48.730;9.114;2022-12-05T08:45:55;4.70;99.90
9125;DHT22;4597;48.730;9.114;2022-12-05T08:48:21;4.70;99.90
9125;DHT22;4597;48.730;9.114;2022-12-05T08:50:47;4.70;99.90
9125;DHT22;4597;48.730;9.114;2022-12-05T08:53:13;4.80;99.90
9125;DHT22;4597;48.730;9.114;2022-12-05T08:55:39;4.80;99.90
9125;DHT22;4597;48.730;9.114;2022-12-05T08:58:04;4.80;99.90
9125;DHT22;4597;48.730;9.114;2022-12-05T09:00:30;4.80;99.90
9125;DHT22;4597;48.730;9.114;2022-12-05T09:02:56;4.90;99.90
9125;DHT22;4597;48.730;9.114;2022-12-05T09:05:22;4.90;99.90
9125;DHT22;4597;48.730;9.114;2022-12-05T09:07:48;4.90;99.90
9125;DHT22;4597;48.730;9.114;2022-12-05T09:10:14;4.90;99.90
9125;DHT22;4597;48.730;9.114;2022-12-05T09:12:40;4.90;99.90
9125;DHT22;4597;48.730;9.114;2022-12-05T09:15:06;4.90;99.90
9125;DHT22;4597;48.730;9.114;2022-12-05T09:17:32;4.90;99.90
9125;DHT22;4597;48.730;9.114;2022-12-05T09:19:58;5.00;99.90
9125;DHT22;4597;48.730;9.114;2022-12-05T09:22:23;5.00;99.90
9125;DHT22;4597;48.730;9.114;2022-12-05T09:24:49;4.90;99.90
9125;DHT22;4597;48.730;9.114;2022-12-05T09:27:15;5.00;99.90
9125;DHT22;4597;48.730;9.114;2022-12-05T09:29:41;4.90;99.90
9125;DHT22;4597;48.730;9.114;2022-12-05T09:32:08;4.90;99.90
9125;DHT22;4597;48.730;9.114;2022-12-05T09:34:33;4.90;99.90
9125;DHT22;4597;48.730;9.114;2022-12-05T09:36:59;4.90;99.90
9125;DHT22;4597;48.730;9.114;2022-12-05T09:39:26;4.90;99.90
9125;DHT22;4597;48.730;9.114;2022-12-05T09:42:33;5.00;99.90
9125;DHT22;4597;48.730;9.114;2022-12-05T09:47:58;5.00;99.90
9125;DHT22;4597;48.730;9.114;2022-12-05T09:50:35;5.00;99.90
9125;DHT22;4597;48.730;9.114;2022-12-05T09:56:14;5.10;99.90
9125;DHT22;4597;48.730;9.114;2022-12-05T09:58:47;5.10;99.90
9125;DHT22;4597;48.730;9.114;2022-12-05T10:04:21;5.20;99.90
9125;DHT22;4597;48.730;9.114;2022-12-05T10:07:21;5.20;99.90
9125;DHT22;4597;48.730;9.114;2022-12-05T10:10:22;5.30;99.90
9125;DHT22;4597;48.730;9.114;2022-12-05T10:13:01;5.30;99.90
9125;DHT22;4597;48.730;9.114;2022-12-05T10:15:40;5.30;99.90
9125;DHT22;4597;48.730;9.114;2022-12-05T10:21:19;5.30;99.90
9125;DHT22;4597;48.730;9.114;2022-12-05T10:23:58;5.40;99.90
9125;DHT22;4597;48.730;9.114;2022-12-05T10:26:27;5.30;99.90
9125;DHT22;4597;48.730;9.114;2022-12-05T10:29:32;5.40;99.90
9125;DHT22;4597;48.730;9.114;2022-12-05T10:32:18;5.30;99.90
9125;DHT22;4597;48.730;9.114;2022-12-05T10:34:44;5.40;99.90
9125;DHT22;4597;48.730;9.114;2022-12-05T10:37:21;5.40;99.90
9125;DHT22;4597;48.730;9.114;2022-12-05T10:39:48;5.40;99.90
9125;DHT22;4597;48.730;9.114;2022-12-05T10:42:22;5.40;99.90
9125;DHT22;4597;48.730;9.114;2022-12-05T10:44:55;5.40;99.90
9125;DHT22;4597;48.730;9.114;2022-12-05T10:47:21;5.40;99.90
9125;DHT22;4597;48.730;9.114;2022-12-05T10:49:47;5.40;99.90
9125;DHT22;4597;48.730;9.114;2022-12-05T10:52:14;5.40;99.90
9125;DHT22;4597;48.730;9.114;2022-12-05T10:54:54;5.40;99.90
9125;DHT22;4597;48.730;9.114;2022-12-05T10:57:28;5.30;99.90
9125;DHT22;4597;48.730;9.114;2022-12-05T10:59:57;5.30;99.90
9125;DHT22;4597;48.730;9.114;2022-12-05T11:02:30;5.30;99.90
9125;DHT22;4597;48.730;9.114;2022-12-05T11:04:57;5.30;99.90
9125;DHT22;4597;48.730;9.114;2022-12-05T11:09:55;5.30;99.90
9125;DHT22;4597;48.730;9.114;2022-12-05T11:12:23;5.30;99.90
9125;DHT22;4597;48.730;9.114;2022-12-05T11:17:33;5.40;99.90
9125;DHT22;4597;48.730;9.114;2022-12-05T11:19:59;5.40;99.90
9125;DHT22;4597;48.730;9.114;2022-12-05T11:22:34;5.40;99.90
9125;DHT22;4597;48.730;9.114;2022-12-05T11:25:00;5.40;99.90
9125;DHT22;4597;48.730;9.114;2022-12-05T11:27:46;5.50;99.90
9125;DHT22;4597;48.730;9.114;2022-12-05T11:32:37;5.70;99.90
9125;DHT22;4597;48.730;9.114;2022-12-05T11:37:55;5.80;99.90
9125;DHT22;4597;48.730;9.114;2022-12-05T11:46:14;6.00;99.90
9125;DHT22;4597;48.730;9.114;2022-12-05T11:54:51;6.00;99.90
9125;DHT22;4597;48.730;9.114;2022-12-05T11:57:37;6.00;99.90
9125;DHT22;4597;48.730;9.114;2022-12-05T12:00:14;5.90;99.90
9125;DHT22;4597;48.730;9.114;2022-12-05T12:08:33;6.00;99.90
9125;DHT22;4597;48.730;9.114;2022-12-05T12:11:24;6.10;99.90
9125;DHT22;4597;48.730;9.114;2022-12-05T12:27:56;6.30;99.90
9125;DHT22;4597;48.730;9.114;2022-12-05T12:30:48;6.40;99.90
9125;DHT22;4597;48.730;9.114;2022-12-05T12:33:30;6.30;99.90
9125;DHT22;4597;48.730;9.114;2022-12-05T12:36:36;6.40;99.90
9125;DHT22;4597;48.730;9.114;2022-12-05T12:42:01;6.50;99.90
9125;DHT22;4597;48.730;9.114;2022-12-05T12:50:18;6.60;99.90
9125;DHT22;4597;48.730;9.114;2022-12-05T12:55:37;6.60;99.90
9125;DHT22;4597;48.730;9.114;2022-12-05T13:03:48;6.60;99.90
9125;DHT22;4597;48.730;9.114;2022-12-05T13:06:28;6.50;99.90
9125;DHT22;4597;48.730;9.114;2022-12-05T13:09:01;6.50;99.90
9125;DHT22;4597;48.730;9.114;2022-12-05T13:11:34;6.50;99.90
9125;DHT22;4597;48.730;9.114;2022-12-05T13:14:01;6.40;99.90
9125;DHT22;4597;48.730;9.114;2022-12-05T13:16:43;6.40;99.90
9125;DHT22;4597;48.730;9.114;2022-12-05T13:19:42;6.30;99.90
9125;DHT22;4597;48.730;9.114;2022-12-05T13:22:09;6.40;99.90
9125;DHT22;4597;48.730;9.114;2022-12-05T13:24:36;6.30;99.90
9125;DHT22;4597;48.730;9.114;2022-12-05T13:27:06;6.30;99.90
9125;DHT22;4597;48.730;9.114;2022-12-05T13:29:42;6.30;99.90
9125;DHT22;4597;48.730;9.114;2022-12-05T13:32:45;6.30;99.90
9125;DHT22;4597;48.730;9.114;2022-12-05T13:35:27;6.30;99.90
9125;DHT22;4597;48.730;9.114;2022-12-05T13:38:30;6.20;99.90
9125;DHT22;4597;48.730;9.114;2022-12-05T13:41:15;6.20;99.90
9125;DHT22;4597;48.730;9.114;2022-12-05T13:44:00;6.20;99.90
9125;DHT22;4597;48.730;9.114;2022-12-05T13:46:32;6.10;99.90
9125;DHT22;4597;48.730;9.114;2022-12-05T13:49:07;6.00;99.90
9125;DHT22;4597;48.730;9.114;2022-12-05T13:51:40;6.00;99.90
9125;DHT22;4597;48.730;9.114;2022-12-05T13:54:15;6.00;99.90
9125;DHT22;4597;48.730;9.114;2022-12-05T13:56:54;6.00;99.90
9125;DHT22;4597;48.730;9.114;2022-12-05T14:10:19;6.10;99.90
9125;DHT22;4597;48.730;9.114;2022-12-05T14:12:54;6.10;99.90
9125;DHT22;4597;48.730;9.114;2022-12-05T14:15:29;6.10;99.90
9125;DHT22;4597;48.730;9.114;2022-12-05T14:18:03;6.10;99.90
9125;DHT22;4597;48.730;9.114;2022-12-05T14:21:01;6.10;99.90
9125;DHT22;4597;48.730;9.114;2022-12-05T14:29:26;6.10;99.90
9125;DHT22;4597;48.730;9.114;2022-12-05T14:37:33;6.10;99.90
9125;DHT22;4597;48.730;9.114;2022-12-05T14:40:03;6.00;99.90
9125;DHT22;4597;48.730;9.114;2022-12-05T14:42:49;6.00;99.90
9125;DHT22;4597;48.730;9.114;2022-12-05T14:45:28;6.10;99.90
9125;DHT22;4597;48.730;9.114;2022-12-05T14:47:57;6.00;99.90
9125;DHT22;4597;48.730;9.114;2022-12-05T14:50:38;6.00;99.90
9125;DHT22;4597;48.730;9.114;2022-12-05T14:55:43;6.00;99.90
9125;DHT22;4597;48.730;9.114;2022-12-05T15:01:55;6.10;99.90
9125;DHT22;4597;48.730;9.114;2022-12-05T15:05:30;6.00;99.90
9125;DHT22;4597;48.730;9.114;2022-12-05T15:07:37;6.00;99.90
9125;DHT22;4597;48.730;9.114;2022-12-05T15:10:12;6.00;99.90
9125;DHT22;4597;48.730;9.114;2022-12-05T15:17:58;5.90;99.90
9125;DHT22;4597;48.730;9.114;2022-12-05T15:21:07;6.00;99.90
9125;DHT22;4597;48.730;9.114;2022-12-05T15:31:49;6.00;99.90
9125;DHT22;4597;48.730;9.114;2022-12-05T15:34:27;5.90;99.90
9125;DHT22;4597;48.730;9.114;2022-12-05T15:37:12;5.90;99.90
9125;DHT22;4597;48.730;9.114;2022-12-05T15:39:53;5.90;99.90
9125;DHT22;4597;48.730;9.114;2022-12-05T15:42:27;5.80;99.90
9125;DHT22;4597;48.730;9.114;2022-12-05T15:47:38;5.90;99.90
9125;DHT22;4597;48.730;9.114;2022-12-05T15:50:04;5.80;99.90
9125;DHT22;4597;48.730;9.114;2022-12-05T15:52:51;5.80;99.90
9125;DHT22;4597;48.730;9.114;2022-12-05T15:55:45;5.80;99.90
9125;DHT22;4597;48.730;9.114;2022-12-05T16:01:21;5.80;99.90
9125;DHT22;4597;48.730;9.114;2022-12-05T16:09:39;5.70;99.90
9125;DHT22;4597;48.730;9.114;2022-12-05T16:14:54;5.70;99.90
9125;DHT22;4597;48.730;9.114;2022-12-05T16:17:21;5.60;99.90
9125;DHT22;4597;48.730;9.114;2022-12-05T16:19:47;5.60;99.90
9125;DHT22;4597;48.730;9.114;2022-12-05T16:24:46;5.50;99.90
9125;DHT22;4597;48.730;9.114;2022-12-05T16:27:13;5.50;99.90
9125;DHT22;4597;48.730;9.114;2022-12-05T16:29:40;5.50;99.90
9125;DHT22;4597;48.730;9.114;2022-12-05T16:32:31;5.50;99.90
9125;DHT22;4597;48.730;9.114;2022-12-05T16:34:58;5.50;99.90
9125;DHT22;4597;48.730;9.114;2022-12-05T16:37:25;5.50;99.90
9125;DHT22;4597;48.730;9.114;2022-12-05T16:39:52;5.40;99.90
9125;DHT22;4597;48.730;9.114;2022-12-05T16:42:25;5.40;99.90
9125;DHT22;4597;48.730;9.114;2022-12-05T16:44:59;5.40;99.90
9125;DHT22;4597;48.730;9.114;2022-12-05T16:55:38;5.50;99.90
9125;DHT22;4597;48.730;9.114;2022-12-05T16:58:04;5.50;99.90
9125;DHT22;4597;48.730;9.114;2022-12-05T17:00:30;5.50;99.90
9125;DHT22;4597;48.730;9.114;2022-12-05T17:02:57;5.50;99.90
9125;DHT22;4597;48.730;9.114;2022-12-05T17:05:23;5.50;99.90
9125;DHT22;4597;48.730;9.114;2022-12-05T17:07:49;5.50;99.90
9125;DHT22;4597;48.730;9.114;2022-12-05T17:10:15;5.50;99.90
9125;DHT22;4597;48.730;9.114;2022-12-05T17:12:41;5.50;99.90
9125;DHT22;4597;48.730;9.114;2022-12-05T17:15:18;5.50;99.90
9125;DHT22;4597;48.730;9.114;2022-12-05T17:17:45;5.50;99.90
9125;DHT22;4597;48.730;9.114;2022-12-05T17:20:11;5.50;99.90
9125;DHT22;4597;48.730;9.114;2022-12-05T17:22:38;5.50;99.90
9125;DHT22;4597;48.730;9.114;2022-12-05T17:25:36;5.50;99.90
9125;DHT22;4597;48.730;9.114;2022-12-05T17:28:01;5.50;99.90
9125;DHT22;4597;48.730;9.114;2022-12-05T17:30:27;5.40;99.90
9125;DHT22;4597;48.730;9.114;2022-12-05T17:32:52;5.40;99.90
9125;DHT22;4597;48.730;9.114;2022-12-05T17:35:20;5.40;99.90
9125;DHT22;4597;48.730;9.114;2022-12-05T17:37:47;5.40;99.90
9125;DHT22;4597;48.730;9.114;2022-12-05T17:40:13;5.50;99.90
9125;DHT22;4597;48.730;9.114;2022-12-05T17:42:39;5.50;99.90
9125;DHT22;4597;48.730;9.114;2022-12-05T17:45:10;5.60;99.90
9125;DHT22;4597;48.730;9.114;2022-12-05T17:47:36;5.50;99.90
9125;DHT22;4597;48.730;9.114;2022-12-05T17:50:02;5.50;99.90
9125;DHT22;4597;48.730;9.114;2022-12-05T17:52:28;5.50;99.90
9125;DHT22;4597;48.730;9.114;2022-12-05T17:54:54;5.50;99.90
9125;DHT22;4597;48.730;9.114;2022-12-05T17:57:19;5.50;99.90
9125;DHT22;4597;48.730;9.114;2022-12-05T17:59:45;5.40;99.90
9125;DHT22;4597;48.730;9.114;2022-12-05T18:02:10;5.40;99.90
9125;DHT22;4597;48.730;9.114;2022-12-05T18:04:36;5.40;99.90
9125;DHT22;4597;48.730;9.114;2022-12-05T18:07:02;5.40;99.90
9125;DHT22;4597;48.730;9.114;2022-12-05T18:09:28;5.40;99.90
9125;DHT22;4597;48.730;9.114;2022-12-05T18:11:54;5.40;99.90
9125;DHT22;4597;48.730;9.114;2022-12-05T18:14:21;5.40;99.90
9125;DHT22;4597;48.730;9.114;2022-12-05T18:16:47;5.40;99.90
9125;DHT22;4597;48.730;9.114;2022-12-05T18:19:12;5.40;99.90
9125;DHT22;4597;48.730;9.114;2022-12-05T18:21:38;5.40;99.90
9125;DHT22;4597;48.730;9.114;2022-12-05T18:24:03;5.40;99.90
9125;DHT22;4597;48.730;9.114;2022-12-05T18:26:29;5.40;99.90
9125;DHT22;4597;48.730;9.114;2022-12-05T18:28:55;5.40;99.90
9125;DHT22;4597;48.730;9.114;2022-12-05T18:31:21;5.40;99.90
9125;DHT22;4597;48.730;9.114;2022-12-05T18:33:47;5.40;99.90
9125;DHT22;4597;48.730;9.114;2022-12-05T18:36:15;5.40;99.90
9125;DHT22;4597;48.730;9.114;2022-12-05T18:38:42;5.40;99.90
9125;DHT22;4597;48.730;9.114;2022-12-05T18:41:12;5.40;99.90
9125;DHT22;4597;48.730;9.114;2022-12-05T18:43:38;5.40;99.90
9125;DHT22;4597;48.730;9.114;2022-12-05T18:46:04;5.40;99.90
9125;DHT22;4597;48.730;9.114;2022-12-05T18:48:31;5.30;99.90
9125;DHT22;4597;48.730;9.114;2022-12-05T18:51:08;5.30;99.90
9125;DHT22;4597;48.730;9.114;2022-12-05T18:53:35;5.30;99.90
9125;DHT22;4597;48.730;9.114;2022-12-05T18:56:05;5.30;99.90
9125;DHT22;4597;48.730;9.114;2022-12-05T18:58:31;5.30;99.90
9125;DHT22;4597;48.730;9.114;2022-12-05T19:01:08;5.20;99.90
9125;DHT22;4597;48.730;9.114;2022-12-05T19:03:34;5.20;99.90
9125;DHT22;4597;48.730;9.114;2022-12-05T19:06:01;5.20;99.90
9125;DHT22;4597;48.730;9.114;2022-12-05T19:08:26;5.20;99.90
9125;DHT22;4597;48.730;9.114;2022-12-05T19:10:52;5.20;99.90
9125;DHT22;4597;48.730;9.114;2022-12-05T19:13:17;5.20;99.90
9125;DHT22;4597;48.730;9.114;2022-12-05T19:15:45;5.10;99.90
9125;DHT22;4597;48.730;9.114;2022-12-05T19:18:11;5.20;99.90
9125;DHT22;4597;48.730;9.114;2022-12-05T19:20:36;5.20;99.90
9125;DHT22;4597;48.730;9.114;2022-12-05T19:23:02;5.20;99.90
9125;DHT22;4597;48.730;9.114;2022-12-05T19:25:28;5.20;99.90
9125;DHT22;4597;48.730;9.114;2022-12-05T19:27:54;5.10;99.90
9125;DHT22;4597;48.730;9.114;2022-12-05T19:30:19;5.10;99.90
9125;DHT22;4597;48.730;9.114;2022-12-05T19:32:45;5.20;99.90
9125;DHT22;4597;48.730;9.114;2022-12-05T19:35:11;5.10;99.90
9125;DHT22;4597;48.730;9.114;2022-12-05T19:37:36;5.20;99.90